Time;durP1;ratioP1;P1;durP2;ratioP2;P2;SDS_P1;SDS_P2;PMS_P1;PMS_P2;Temp;Humidity;BMP_temperature;BMP_pressure;BME280_temperature;BME280_humidity;BME280_pressure;Samples;Min_cycle;Max_cycle;Signal;HPM_P1;HPM_P2
2021/09/23 00:00:32;;;;;;;17.50;8.88;;;;;;;15.77;100.00;101327.72;5011123;28;20168;-65
2021/09/23 00:05:27;;;;;;;17.30;8.75;;;;;;;15.75;100.00;101327.31;5015371;28;20049;-65
2021/09/23 00:07:55;;;;;;;21.10;9.50;;;;;;;15.80;100.00;101320.72;5012359;28;20049;-65
2021/09/23 00:10:27;;;;;;;20.92;9.05;;;;;;;15.75;100.00;101307.50;5007875;28;20038;-66
2021/09/23 00:12:54;;;;;;;17.27;8.80;;;;;;;15.71;100.00;101304.75;5013579;28;20120;-66
2021/09/23 00:15:20;;;;;;;23.60;10.10;;;;;;;15.76;100.00;101296.25;4994089;28;20597;-65
2021/09/23 00:17:48;;;;;;;20.75;9.75;;;;;;;15.70;100.00;101289.59;5011947;28;20029;-65
2021/09/23 00:20:19;;;;;;;19.65;8.93;;;;;;;15.67;100.00;101289.56;5009575;28;20037;-65
2021/09/23 00:22:44;;;;;;;18.58;10.15;;;;;;;15.67;100.00;101289.56;5010397;28;20038;-66
2021/09/23 00:25:11;;;;;;;18.80;9.30;;;;;;;15.69;100.00;101290.75;5011714;28;20049;-66
2021/09/23 00:27:37;;;;;;;18.88;9.50;;;;;;;15.68;100.00;101280.28;5007360;28;20033;-67
2021/09/23 00:30:04;;;;;;;19.90;9.65;;;;;;;15.63;100.00;101289.53;5021011;28;20108;-65
2021/09/23 00:32:30;;;;;;;19.45;10.48;;;;;;;15.63;100.00;101280.59;5010805;28;20112;-66
2021/09/23 00:34:55;;;;;;;23.77;10.48;;;;;;;15.61;100.00;101280.97;4993476;28;20120;-65
2021/09/23 00:37:21;;;;;;;23.50;9.65;;;;;;;15.56;100.00;101278.63;5015111;28;20390;-66
2021/09/23 00:39:47;;;;;;;27.92;10.43;;;;;;;15.57;100.00;101276.66;5018667;28;20037;-65
2021/09/23 00:42:12;;;;;;;27.60;10.80;;;;;;;15.60;100.00;101270.50;5016402;28;20044;-65
2021/09/23 00:44:38;;;;;;;21.55;9.52;;;;;;;15.52;100.00;101266.16;5001198;28;20445;-65
2021/09/23 00:47:04;;;;;;;21.33;9.98;;;;;;;15.53;100.00;101254.91;5010991;28;20048;-65
2021/09/23 00:49:30;;;;;;;21.83;10.68;;;;;;;15.48;100.00;101251.75;4977075;28;20038;-65
2021/09/23 00:51:56;;;;;;;22.27;9.52;;;;;;;15.47;100.00;101250.97;4985132;28;20077;-65
2021/09/23 00:54:21;;;;;;;21.85;9.68;;;;;;;15.49;100.00;101245.94;4993921;28;20450;-65
2021/09/23 00:56:47;;;;;;;20.17;9.88;;;;;;;15.43;100.00;101235.81;4993164;28;20088;-65
2021/09/23 00:59:12;;;;;;;22.10;10.15;;;;;;;15.46;100.00;101241.28;5010828;28;20466;-65
2021/09/23 01:01:45;;;;;;;27.75;10.60;;;;;;;15.47;100.00;101231.97;4986663;28;20021;-66
2021/09/23 01:04:15;;;;;;;23.75;10.90;;;;;;;15.41;100.00;101229.94;5000964;28;20033;-65
2021/09/23 01:06:42;;;;;;;21.23;10.18;;;;;;;15.38;100.00;101226.03;4992967;28;20038;-65
2021/09/23 01:09:09;;;;;;;22.20;9.80;;;;;;;15.41;100.00;101229.94;4989795;28;20030;-65
2021/09/23 01:11:34;;;;;;;26.23;10.43;;;;;;;15.41;100.00;101222.56;5014665;28;20083;-65
2021/09/23 01:14:00;;;;;;;22.95;10.52;;;;;;;15.42;100.00;101226.09;4993059;28;20394;-66
2021/09/23 01:16:41;;;;;;;24.23;11.27;;;;;;;15.36;100.00;101218.28;4992919;28;20037;-66
2021/09/23 01:19:25;;;;;;;23.77;10.13;;;;;;;15.29;100.00;101220.91;5010065;28;20032;-65
2021/09/23 01:21:52;;;;;;;24.85;10.65;;;;;;;15.33;100.00;101220.94;4995907;28;20587;-65
2021/09/23 01:24:18;;;;;;;21.77;10.60;;;;;;;15.27;100.00;101209.63;5009784;28;20108;-65
2021/09/23 01:26:48;;;;;;;20.08;10.50;;;;;;;15.21;100.00;101202.22;4991307;28;20121;-65
2021/09/23 01:29:30;;;;;;;19.88;9.38;;;;;;;15.25;100.00;101205.75;4988580;28;20776;-65
2021/09/23 01:32:01;;;;;;;;;;;;;;;15.17;100.00;101201.41;5013225;28;20572;-66
2021/09/23 01:34:29;;;;;;;26.55;11.10;;;;;;;15.16;100.00;101197.09;4991825;28;19921;-66
2021/09/23 01:36:56;;;;;;;24.95;10.52;;;;;;;15.18;100.00;101186.66;4992944;28;20030;-65
2021/09/23 01:39:24;;;;;;;22.85;10.40;;;;;;;15.18;100.00;101186.66;4989967;28;20030;-65
2021/09/23 01:41:53;;;;;;;23.10;10.43;;;;;;;15.19;100.00;101188.25;5002428;28;20086;-65
2021/09/23 01:44:25;;;;;;;23.67;10.40;;;;;;;15.24;100.00;101180.53;4986912;28;20490;-65
2021/09/23 01:46:51;;;;;;;26.13;10.70;;;;;;;15.18;100.00;101173.88;4998041;28;20645;-65
2021/09/23 01:49:23;;;;;;;24.67;10.20;;;;;;;15.20;100.00;101158.00;4992670;28;20046;-66
2021/09/23 01:51:50;;;;;;;26.67;10.40;;;;;;;15.14;100.00;101167.63;4986583;28;20501;-65
2021/09/23 01:54:17;;;;;;;27.90;11.05;;;;;;;15.16;100.00;101151.78;4995056;28;20553;-65
2021/09/23 01:56:43;;;;;;;24.85;10.50;;;;;;;15.16;100.00;101153.69;4997091;28;20026;-66
2021/09/23 01:59:08;;;;;;;24.88;11.05;;;;;;;15.15;100.00;101149.44;5010535;28;20486;-66
2021/09/23 02:01:34;;;;;;;27.25;10.88;;;;;;;15.14;100.00;101142.44;4985022;28;20033;-66
2021/09/23 02:04:00;;;;;;;27.67;11.18;;;;;;;15.16;100.00;101134.69;5001777;28;20611;-65
2021/09/23 02:06:41;;;;;;;27.27;11.48;;;;;;;15.10;100.00;101130.75;4990506;28;20171;-65
2021/09/23 02:09:07;;;;;;;26.70;10.82;;;;;;;15.00;100.00;101126.03;4996289;28;20456;-65
2021/09/23 02:11:35;;;;;;;27.27;10.88;;;;;;;14.97;100.00;101107.78;4991599;28;20029;-65
2021/09/23 02:14:03;;;;;;;26.08;11.95;;;;;;;14.94;100.00;101111.25;4987102;28;20387;-65
2021/09/23 02:16:29;;;;;;;23.42;11.30;;;;;;;15.02;100.00;101110.16;4991773;28;20029;-66
2021/09/23 02:18:58;;;;;;;27.23;11.68;;;;;;;14.96;100.00;101093.44;4998113;28;20044;-65
2021/09/23 02:21:24;;;;;;;25.65;11.32;;;;;;;15.01;100.00;101081.47;5000381;28;20056;-65
2021/09/23 02:23:51;;;;;;;24.27;10.82;;;;;;;14.99;100.00;101084.56;4986928;28;20033;-65
2021/09/23 02:26:18;;;;;;;27.85;11.15;;;;;;;14.98;100.00;101058.56;4995997;28;20033;-65
2021/09/23 02:28:43;;;;;;;25.08;11.18;;;;;;;14.92;100.00;101060.09;5016117;28;20429;-65
2021/09/23 02:31:09;;;;;;;22.75;10.40;;;;;;;14.92;100.00;101070.94;4993003;28;20036;-65
2021/09/23 02:33:35;;;;;;;31.13;11.45;;;;;;;14.87;100.00;101068.56;4989346;28;20111;-65
2021/09/23 02:36:02;;;;;;;27.67;11.48;;;;;;;14.92;100.00;101062.03;4983449;28;20045;-65
2021/09/23 02:38:28;;;;;;;26.20;11.57;;;;;;;14.93;100.00;101069.00;4989308;28;20096;-65
2021/09/23 02:40:55;;;;;;;23.73;11.10;;;;;;;14.88;100.00;101080.19;5000396;28;20059;-65
2021/09/23 02:43:22;;;;;;;27.40;11.23;;;;;;;14.81;100.00;101078.19;4996331;28;20458;-65
2021/09/23 02:45:47;;;;;;;28.85;11.30;;;;;;;14.87;100.00;101073.19;5000434;28;20042;-65
2021/09/23 02:48:13;;;;;;;28.80;11.77;;;;;;;14.82;100.00;101066.19;4996642;28;20084;-65
2021/09/23 02:50:39;;;;;;;27.45;11.57;;;;;;;14.87;100.00;101059.63;4995850;28;20037;-65
2021/09/23 02:53:04;;;;;;;26.50;11.18;;;;;;;14.85;100.00;101061.94;5000174;28;20033;-65
2021/09/23 02:55:30;;;;;;;27.90;11.80;;;;;;;14.83;100.00;101054.19;4996364;28;20030;-65
2021/09/23 02:57:56;;;;;;;25.13;10.70;;;;;;;14.81;100.00;101042.94;4994097;28;20518;-65
2021/09/23 03:00:21;;;;;;;29.88;12.48;;;;;;;14.90;100.00;101039.91;5003599;28;20493;-65
2021/09/23 03:02:46;;;;;;;28.70;11.50;;;;;;;14.82;100.00;101038.28;4997611;28;20108;-65
2021/09/23 03:05:12;;;;;;;28.00;10.75;;;;;;;14.79;100.00;101033.63;4995276;28;20494;-65
2021/09/23 03:07:37;;;;;;;24.95;10.68;;;;;;;14.79;100.00;101039.06;4999971;28;20132;-65
2021/09/23 03:10:04;;;;;;;23.95;9.80;;;;;;;14.82;100.00;101030.94;5004174;28;20037;-65
2021/09/23 03:12:31;;;;;;;27.65;10.55;;;;;;;14.70;100.00;101038.56;4994856;28;20037;-64
2021/09/23 03:14:57;;;;;;;24.52;10.68;;;;;;;14.66;100.00;101024.97;4992940;28;20034;-65
2021/09/23 03:17:23;;;;;;;23.95;9.80;;;;;;;14.70;100.00;101022.28;4995809;28;20032;-65
2021/09/23 03:19:48;;;;;;;25.50;10.70;;;;;;;14.66;100.00;101007.91;4979041;28;20494;-65
2021/09/23 03:22:17;;;;;;;27.63;10.88;;;;;;;14.68;100.00;101000.97;5001605;28;20041;-65
2021/09/23 03:24:43;;;;;;;24.00;10.68;;;;;;;14.61;100.00;100997.44;4999337;28;20128;-65
2021/09/23 03:27:09;;;;;;;26.40;10.95;;;;;;;14.64;100.00;100992.03;4994802;28;20037;-65
2021/09/23 03:29:35;;;;;;;25.58;10.30;;;;;;;14.68;100.00;100994.78;4995434;28;20038;-65
2021/09/23 03:32:00;;;;;;;26.42;10.38;;;;;;;14.58;100.00;100993.53;5008114;28;20041;-65
2021/09/23 03:34:26;;;;;;;30.85;10.40;;;;;;;14.58;100.00;100996.22;4994260;28;20483;-65
2021/09/23 03:36:51;;;;;;;29.80;11.88;;;;;;;14.65;100.00;100993.59;4990984;28;20042;-65
2021/09/23 03:39:17;;;;;;;22.52;10.50;;;;;;;14.60;100.00;100993.13;5005405;28;20034;-65
2021/09/23 03:41:42;;;;;;;35.83;11.68;;;;;;;14.60;100.00;100991.22;4979765;28;20034;-65
2021/09/23 03:44:08;;;;;;;29.70;11.43;;;;;;;14.62;100.00;100991.63;4992606;28;20084;-65
2021/09/23 03:46:34;;;;;;;27.65;10.30;;;;;;;14.64;100.00;100978.47;4996430;28;20029;-65
2021/09/23 03:49:00;;;;;;;28.00;11.82;;;;;;;14.62;100.00;100977.28;4999185;28;20041;-65
2021/09/23 03:51:25;;;;;;;26.45;10.27;;;;;;;14.54;100.00;100984.56;4998749;28;20419;-65
2021/09/23 03:53:51;;;;;;;30.92;11.20;;;;;;;14.57;100.00;100986.56;4994410;28;20044;-65
2021/09/23 03:56:16;;;;;;;29.08;10.95;;;;;;;14.60;100.00;100979.59;4994270;28;20033;-65
2021/09/23 03:58:45;;;;;;;27.08;10.95;;;;;;;14.52;100.00;100981.47;4989242;28;20025;-65
2021/09/23 04:01:12;;;;;;;27.25;10.65;;;;;;;14.51;100.00;100974.50;4993867;28;20034;-65
2021/09/23 04:03:38;;;;;;;23.83;10.23;;;;;;;14.56;100.00;100973.34;4986252;28;20371;-65
2021/09/23 04:06:04;;;;;;;26.38;10.60;;;;;;;14.57;100.00;100955.94;5008993;28;20092;-65
2021/09/23 04:08:29;;;;;;;23.77;10.40;;;;;;;14.59;100.00;100953.66;4994008;28;20029;-65
2021/09/23 04:10:56;;;;;;;27.85;10.20;;;;;;;14.55;100.00;100950.13;4993639;28;20037;-66
2021/09/23 04:13:22;;;;;;;27.80;10.73;;;;;;;14.50;100.00;100943.09;4992137;28;20026;-65
2021/09/23 04:15:50;;;;;;;26.60;10.23;;;;;;;14.45;100.00;100944.25;4988943;28;20057;-65
2021/09/23 04:18:18;;;;;;;24.85;9.95;;;;;;;14.54;100.00;100940.44;4993496;28;20060;-65
2021/09/23 04:20:45;;;;;;;26.00;10.95;;;;;;;14.52;100.00;100937.34;4991056;28;20033;-65
2021/09/23 04:23:12;;;;;;;27.75;10.85;;;;;;;14.54;100.00;100935.03;5005538;28;20068;-65
2021/09/23 04:25:38;;;;;;;28.85;11.25;;;;;;;14.54;100.00;100940.44;5009950;28;20091;-65
2021/09/23 04:28:04;;;;;;;30.95;11.25;;;;;;;14.56;100.00;100932.69;4993562;28;20044;-65
2021/09/23 04:30:30;;;;;;;28.35;10.25;;;;;;;14.53;100.00;100917.97;4985526;28;20465;-65
2021/09/23 04:32:55;;;;;;;27.50;11.90;;;;;;;14.52;100.00;100921.06;4993533;28;20096;-65
2021/09/23 04:35:21;;;;;;;27.80;10.98;;;;;;;14.52;100.00;100912.94;4993527;28;20036;-65
2021/09/23 04:37:47;;;;;;;30.08;10.27;;;;;;;14.52;100.00;100913.69;4993003;28;20033;-65
2021/09/23 04:40:13;;;;;;;25.38;10.30;;;;;;;14.55;100.00;100925.72;4993155;28;20091;-65
2021/09/23 04:42:42;;;;;;;31.20;10.88;;;;;;;14.55;100.00;100923.03;4987423;28;20037;-65
2021/09/23 04:45:10;;;;;;;23.75;10.18;;;;;;;14.55;100.00;100912.97;4977418;28;20411;-65
2021/09/23 04:47:41;;;;;;;25.83;10.80;;;;;;;14.58;100.00;100914.13;5002809;28;20036;-65
2021/09/23 04:50:08;;;;;;;31.13;11.00;;;;;;;14.62;100.00;100906.81;4993762;28;20113;-65
2021/09/23 04:52:34;;;;;;;29.10;11.13;;;;;;;14.64;100.00;100902.56;4993954;28;20026;-65
2021/09/23 04:54:59;;;;;;;28.23;10.02;;;;;;;14.65;100.00;100890.59;4991508;28;20039;-65
2021/09/23 04:57:27;;;;;;;29.90;10.85;;;;;;;14.63;100.00;100878.56;5000578;28;20037;-66
2021/09/23 04:59:58;;;;;;;23.55;9.95;;;;;;;14.62;99.97;100877.00;4991748;28;20034;-65
2021/09/23 05:02:23;;;;;;;27.45;10.60;;;;;;;14.56;99.79;100873.06;4992430;28;20045;-65
2021/09/23 05:04:49;;;;;;;28.00;10.60;;;;;;;14.61;99.45;100867.31;4993383;28;20034;-65
2021/09/23 05:07:14;;;;;;;29.13;10.43;;;;;;;14.60;99.26;100861.09;4991872;28;20038;-65
2021/09/23 05:09:40;;;;;;;27.17;10.88;;;;;;;14.63;99.31;100854.16;4991725;28;20079;-65
2021/09/23 05:12:10;;;;;;;32.33;11.35;;;;;;;14.62;98.93;100852.59;4992336;28;20029;-65
2021/09/23 05:14:35;;;;;;;31.70;11.23;;;;;;;14.61;99.02;100842.91;5002487;28;20037;-65
2021/09/23 05:17:01;;;;;;;28.25;10.73;;;;;;;14.63;98.62;100835.19;5011075;28;20686;-65
2021/09/23 05:19:26;;;;;;;29.88;10.38;;;;;;;14.61;98.34;100827.44;5001469;28;20038;-65
2021/09/23 05:21:52;;;;;;;27.65;10.18;;;;;;;14.66;97.94;100824.38;4994733;28;20038;-66
2021/09/23 05:24:20;;;;;;;25.85;9.70;;;;;;;14.66;98.33;100831.72;4994299;28;20089;-65
2021/09/23 05:26:46;;;;;;;28.10;11.23;;;;;;;14.65;98.08;100824.75;4993291;28;20607;-65
2021/09/23 05:29:11;;;;;;;26.75;11.35;;;;;;;14.64;97.78;100825.88;5006759;28;20042;-65
2021/09/23 05:31:37;;;;;;;27.13;10.98;;;;;;;14.53;98.47;100831.25;4963119;28;20033;-65
2021/09/23 05:34:04;;;;;;;33.08;11.23;;;;;;;14.60;98.15;100844.06;5005689;28;20049;-65
2021/09/23 05:36:30;;;;;;;27.38;10.75;;;;;;;14.64;98.13;100844.84;5005850;28;20679;-65
2021/09/23 05:38:59;;;;;;;27.17;9.93;;;;;;;14.67;98.11;100846.84;5010634;28;20037;-65
2021/09/23 05:41:27;;;;;;;29.08;11.00;;;;;;;14.70;98.54;100854.19;5013057;28;20042;-65
2021/09/23 05:43:53;;;;;;;25.38;11.10;;;;;;;14.73;98.09;100848.03;5008478;28;20446;-65
2021/09/23 05:46:18;;;;;;;24.95;9.93;;;;;;;14.76;98.30;100845.34;5006717;28;20045;-66
2021/09/23 05:48:44;;;;;;;26.35;10.75;;;;;;;14.79;97.93;100841.88;5011331;28;20395;-66
2021/09/23 05:51:09;;;;;;;25.77;10.40;;;;;;;14.79;98.08;100849.25;5009789;28;20048;-66
2021/09/23 05:53:35;;;;;;;27.20;10.18;;;;;;;14.78;98.03;100847.69;4999541;28;20046;-66
2021/09/23 05:56:01;;;;;;;27.45;9.45;;;;;;;14.85;97.60;100843.06;5009760;28;20534;-66
2021/09/23 05:58:27;;;;;;;30.20;10.57;;;;;;;14.91;97.93;100848.91;4999727;28;20034;-66
2021/09/23 06:00:52;;;;;;;24.80;10.23;;;;;;;14.94;97.59;100848.16;4996177;28;20041;-66
2021/09/23 06:03:17;;;;;;;27.33;10.80;;;;;;;14.99;96.88;100836.94;4991738;28;20034;-66
2021/09/23 06:05:43;;;;;;;29.42;10.50;;;;;;;14.98;97.43;100827.28;4994865;28;20041;-66
2021/09/23 06:08:08;;;;;;;25.67;10.13;;;;;;;14.99;97.44;100826.88;4993715;28;20116;-66
2021/09/23 06:10:34;;;;;;;25.10;9.75;;;;;;;15.02;96.93;100815.25;4992176;28;20026;-66
2021/09/23 06:12:59;;;;;;;27.00;9.85;;;;;;;15.03;97.15;100811.41;4991348;28;20038;-67
2021/09/23 06:15:25;;;;;;;24.98;9.35;;;;;;;15.03;97.22;100824.19;4994982;28;20044;-66
2021/09/23 06:17:50;;;;;;;24.55;9.20;;;;;;;15.08;97.27;100812.97;4995097;28;20510;-66
2021/09/23 06:20:18;;;;;;;26.40;9.52;;;;;;;15.10;96.93;100797.88;4993645;28;20073;-66
2021/09/23 06:22:43;;;;;;;24.48;9.02;;;;;;;15.10;97.14;100789.72;4998088;28;20030;-66
2021/09/23 06:25:10;;;;;;;26.33;9.82;;;;;;;15.15;96.93;100773.09;4997696;28;20100;-66
2021/09/23 06:27:35;;;;;;;23.50;9.48;;;;;;;15.15;96.63;100772.31;4997927;28;20045;-66
2021/09/23 06:30:01;;;;;;;29.42;9.82;;;;;;;15.15;96.47;100775.81;4995406;28;20034;-66
2021/09/23 06:32:26;;;;;;;26.70;9.40;;;;;;;15.18;96.87;100782.38;4994781;28;20034;-67
2021/09/23 06:34:53;;;;;;;22.90;9.70;;;;;;;15.18;96.89;100769.59;5021577;22;20360;-67
2021/09/23 06:37:19;;;;;;;24.52;10.05;;;;;;;15.20;96.99;100763.78;5021508;28;20029;-67
2021/09/23 06:39:45;;;;;;;28.25;10.02;;;;;;;15.19;96.60;100759.53;5015150;28;20044;-66
2021/09/23 06:42:10;;;;;;;24.45;9.82;;;;;;;15.17;96.58;100743.66;5012979;28;20061;-67
2021/09/23 06:44:36;;;;;;;25.60;9.68;;;;;;;15.24;96.64;100742.88;5013407;28;20034;-67
2021/09/23 06:47:01;;;;;;;25.55;9.45;;;;;;;15.23;96.66;100738.63;5011948;28;20807;-67
2021/09/23 06:49:27;;;;;;;23.05;8.98;;;;;;;15.26;96.78;100735.91;5022513;28;20042;-68
2021/09/23 06:51:52;;;;;;;26.13;9.45;;;;;;;15.25;96.84;100728.16;5013786;28;20071;-67
2021/09/23 06:54:19;;;;;;;32.30;10.48;;;;;;;15.28;97.29;100721.97;5012915;28;20037;-67
2021/09/23 06:56:44;;;;;;;26.17;9.52;;;;;;;15.33;97.19;100718.84;5013047;28;20095;-67
2021/09/23 06:59:10;;;;;;;21.30;9.00;;;;;;;15.33;97.41;100722.34;5013782;28;20030;-67
2021/09/23 07:01:36;;;;;;;21.75;8.80;;;;;;;15.38;97.59;100713.84;5011135;28;20461;-67
2021/09/23 07:04:36;;;;;;;21.35;8.77;;;;;;;15.41;97.39;100706.09;4993136;28;20494;-68
2021/09/23 07:07:28;;;;;;;;;;;;;;;15.39;97.41;100704.53;5009175;28;20522;-68
2021/09/23 07:09:55;;;;;;;21.13;8.48;;;;;;;15.44;97.94;100691.78;5027438;28;20011;-66
2021/09/23 07:12:28;;;;;;;24.15;9.18;;;;;;;15.49;97.44;100697.59;5024256;28;20083;-67
2021/09/23 07:14:53;;;;;;;24.00;9.07;;;;;;;15.53;97.57;100694.88;5012341;28;20103;-67
2021/09/23 07:17:19;;;;;;;24.10;8.80;;;;;;;15.59;97.81;100688.69;5025899;28;20101;-67
2021/09/23 07:19:44;;;;;;;22.70;8.93;;;;;;;15.61;97.99;100680.16;5019944;28;20033;-67
2021/09/23 07:22:10;;;;;;;24.50;9.00;;;;;;;15.61;98.00;100683.66;5038175;28;20780;-67
2021/09/23 07:24:36;;;;;;;21.83;9.32;;;;;;;15.67;98.12;100681.31;5020632;28;20450;-67
2021/09/23 07:27:02;;;;;;;21.30;8.88;;;;;;;15.76;97.75;100684.41;5027282;28;20033;-67
2021/09/23 07:29:27;;;;;;;22.77;9.15;;;;;;;15.76;98.85;100700.69;5019848;28;20046;-64
2021/09/23 07:31:54;;;;;;;20.55;8.32;;;;;;;15.82;98.27;100691.78;5020871;28;20044;-64
2021/09/23 07:34:20;;;;;;;19.60;8.10;;;;;;;15.78;98.95;100692.94;5029350;28;20120;-65
2021/09/23 07:36:46;;;;;;;22.67;9.00;;;;;;;15.88;98.95;100675.88;5016160;28;20025;-63
2021/09/23 07:39:12;;;;;;;20.52;8.35;;;;;;;15.91;99.26;100675.84;5023393;28;20115;-64
2021/09/23 07:41:40;;;;;;;21.80;8.05;;;;;;;16.00;98.98;100676.25;5010860;28;20044;-65
2021/09/23 07:44:08;;;;;;;23.25;8.55;;;;;;;16.11;98.88;100668.84;5016124;28;20049;-65
2021/09/23 07:46:34;;;;;;;19.88;8.35;;;;;;;16.24;98.28;100663.75;5020218;28;20109;-65
2021/09/23 07:48:59;;;;;;;18.27;8.20;;;;;;;16.30;98.08;100670.34;5027050;28;20124;-64
2021/09/23 07:51:25;;;;;;;22.63;8.77;;;;;;;16.34;97.80;100659.50;5025309;28;20029;-65
2021/09/23 07:53:51;;;;;;;17.35;8.10;;;;;;;16.37;98.33;100670.34;5020886;28;20037;-64
2021/09/23 07:56:16;;;;;;;17.45;7.32;;;;;;;16.44;98.01;100658.66;5025569;28;20029;-64
2021/09/23 07:58:42;;;;;;;16.58;7.90;;;;;;;16.55;97.41;100662.91;5010366;28;20040;-66
2021/09/23 08:01:09;;;;;;;19.00;8.35;;;;;;;16.60;97.42;100651.66;5016441;28;20025;-67
2021/09/23 08:03:35;;;;;;;21.00;7.78;;;;;;;16.65;97.12;100658.59;5023704;28;20025;-64
2021/09/23 08:06:01;;;;;;;24.83;8.52;;;;;;;16.72;96.69;100655.88;5039414;28;20037;-63
2021/09/23 08:08:27;;;;;;;19.58;7.72;;;;;;;16.72;97.87;100661.31;5035098;28;20045;-63
2021/09/23 08:10:52;;;;;;;18.80;7.90;;;;;;;16.73;97.45;100662.84;5022685;28;20497;-64
2021/09/23 08:13:18;;;;;;;20.27;7.82;;;;;;;16.78;97.56;100665.91;5040942;28;20121;-63
2021/09/23 08:15:44;;;;;;;17.40;7.32;;;;;;;16.82;96.96;100666.69;5032164;28;20026;-64
2021/09/23 08:18:29;;;;;;;18.80;7.50;;;;;;;16.80;97.10;100666.31;5007249;28;20038;-64
2021/09/23 08:21:07;;;;;;;14.05;7.13;;;;;;;16.84;96.64;100658.16;5014573;28;20056;-63
2021/09/23 08:23:32;;;;;;;18.15;7.47;;;;;;;16.84;96.81;100650.75;5018644;28;20534;-63
2021/09/23 08:25:58;;;;;;;17.10;6.93;;;;;;;16.86;96.70;100661.25;5007225;28;20061;-63
2021/09/23 08:28:27;;;;;;;15.82;7.85;;;;;;;16.84;97.35;100660.88;5012723;28;20521;-64
2021/09/23 08:30:53;;;;;;;15.98;6.80;;;;;;;16.84;97.19;100641.81;5029436;28;20473;-63
2021/09/23 08:33:19;;;;;;;19.63;7.88;;;;;;;16.84;97.79;100653.47;5010057;28;20039;-63
2021/09/23 08:35:45;;;;;;;16.40;7.03;;;;;;;16.78;97.92;100641.44;5009701;28;20470;-63
2021/09/23 08:38:11;;;;;;;17.15;7.28;;;;;;;16.81;97.97;100634.44;5009252;28;20025;-63
2021/09/23 08:40:39;;;;;;;17.70;6.97;;;;;;;16.85;97.44;100625.09;5026502;28;20030;-65
2021/09/23 08:43:05;;;;;;;19.10;8.02;;;;;;;16.76;98.06;100624.00;5022994;28;20061;-63
2021/09/23 08:45:31;;;;;;;17.17;7.25;;;;;;;16.77;98.36;100622.81;5014315;28;20072;-64
2021/09/23 08:47:59;;;;;;;17.20;7.43;;;;;;;16.77;98.71;100633.69;5006270;28;20053;-63
2021/09/23 08:50:25;;;;;;;21.67;7.68;;;;;;;16.83;98.18;100615.78;5006247;28;20034;-64
2021/09/23 08:52:50;;;;;;;20.52;8.00;;;;;;;16.84;97.81;100612.66;5009612;28;20048;-64
2021/09/23 08:55:20;;;;;;;15.73;6.55;;;;;;;16.89;97.69;100617.69;5007203;28;20444;-65
2021/09/23 08:57:45;;;;;;;17.92;7.70;;;;;;;16.88;98.55;100594.38;5019697;28;20489;-64
2021/09/23 09:00:12;;;;;;;19.13;7.57;;;;;;;16.87;98.78;100590.09;5007995;28;20169;-65
2021/09/23 09:02:38;;;;;;;20.90;7.95;;;;;;;16.86;98.99;100593.25;5028014;28;20486;-63
2021/09/23 09:05:20;;;;;;;19.63;8.80;;;;;;;16.87;99.11;100597.50;5027272;28;21386;-63
2021/09/23 09:08:11;;;;;;;21.65;8.60;;;;;;;16.92;99.41;100586.19;5021231;28;20041;-64
2021/09/23 09:11:05;;;;;;;20.70;7.53;;;;;;;16.94;99.20;100575.66;5009134;28;20042;-64
2021/09/23 09:13:37;;;;;;;21.20;8.50;;;;;;;16.92;99.82;100586.19;5005567;28;20030;-64
2021/09/23 09:16:14;;;;;;;21.00;7.90;;;;;;;17.00;99.49;100582.22;4999637;28;20028;-65
2021/09/23 09:18:40;;;;;;;17.27;7.90;;;;;;;17.06;99.03;100592.31;5022776;28;20042;-64
2021/09/23 09:21:12;;;;;;;19.20;8.52;;;;;;;17.10;98.55;100576.72;5030524;28;20026;-65
2021/09/23 09:23:48;;;;;;;18.02;8.25;;;;;;;17.02;98.35;100575.22;5008487;28;20056;-65
2021/09/23 09:26:41;;;;;;;21.90;8.40;;;;;;;17.02;98.39;100571.72;5008781;28;20634;-65
2021/09/23 09:29:09;;;;;;;16.33;7.13;;;;;;;17.02;98.53;100580.66;5023370;28;20033;-64
2021/09/23 09:31:37;;;;;;;20.08;8.50;;;;;;;17.04;98.06;100572.09;5000016;28;20033;-64
2021/09/23 09:34:04;;;;;;;16.08;7.40;;;;;;;17.06;98.19;100569.75;5008524;28;20113;-65
2021/09/23 09:36:59;;;;;;;15.48;6.82;;;;;;;17.04;97.40;100572.09;5002163;28;20034;-65
2021/09/23 09:39:29;;;;;;;17.20;7.10;;;;;;;17.00;98.10;100565.91;5006223;28;20748;-64
2021/09/23 09:41:54;;;;;;;21.60;8.05;;;;;;;17.04;98.81;100553.84;5021559;28;20048;-63
2021/09/23 09:44:21;;;;;;;17.27;7.55;;;;;;;17.12;98.31;100547.16;5021194;28;20674;-64
2021/09/23 09:46:54;;;;;;;20.55;7.93;;;;;;;17.17;98.00;100545.94;5032454;28;20041;-63
2021/09/23 09:49:22;;;;;;;19.70;7.10;;;;;;;17.22;97.74;100542.03;5021056;28;20204;-65
2021/09/23 09:51:54;;;;;;;16.17;7.38;;;;;;;17.21;97.63;100535.81;5005583;28;20041;-64
2021/09/23 09:54:20;;;;;;;21.33;8.20;;;;;;;17.31;97.16;100536.88;5027344;28;20030;-64
2021/09/23 09:56:55;;;;;;;19.95;7.82;;;;;;;17.33;97.07;100513.53;5021561;28;20068;-64
2021/09/23 09:59:21;;;;;;;16.17;7.78;;;;;;;17.35;96.84;100516.63;5021430;28;20057;-64
2021/09/23 10:01:53;;;;;;;20.30;7.75;;;;;;;17.35;96.58;100521.28;5006616;28;20046;-63
2021/09/23 10:04:21;;;;;;;18.10;7.47;;;;;;;17.39;96.56;100511.13;5007390;28;20040;-66
2021/09/23 10:06:49;;;;;;;16.83;7.75;;;;;;;17.44;96.47;100508.75;5025961;28;20022;-65
2021/09/23 10:09:16;;;;;;;16.20;7.65;;;;;;;17.46;96.44;100505.66;5028107;28;20033;-64
2021/09/23 10:11:44;;;;;;;15.75;7.05;;;;;;;17.40;96.73;100494.38;5004979;28;20034;-64
2021/09/23 10:14:12;;;;;;;16.25;7.25;;;;;;;17.44;96.13;100480.75;5023388;28;20041;-66
2021/09/23 10:16:38;;;;;;;19.00;6.95;;;;;;;17.50;96.48;100484.63;5008786;28;20034;-66
2021/09/23 10:19:06;;;;;;;16.52;7.13;;;;;;;17.60;96.29;100484.50;5035561;28;20038;-65
2021/09/23 10:21:32;;;;;;;18.73;7.80;;;;;;;17.60;96.83;100481.78;5004866;28;20029;-64
2021/09/23 10:23:57;;;;;;;16.20;7.15;;;;;;;17.72;95.80;100464.13;5016278;28;20042;-64
2021/09/23 10:26:29;;;;;;;15.85;7.47;;;;;;;17.69;95.43;100457.53;5039400;28;20139;-64
2021/09/23 10:28:56;;;;;;;15.05;6.68;;;;;;;17.72;95.64;100462.19;5030488;28;20060;-64
2021/09/23 10:31:31;;;;;;;15.60;6.78;;;;;;;17.74;95.40;100457.09;5014861;28;20026;-64
2021/09/23 10:33:59;;;;;;;16.27;6.63;;;;;;;17.82;95.25;100449.59;5016681;28;20033;-65
2021/09/23 10:36:27;;;;;;;18.42;7.57;;;;;;;17.91;94.77;100445.19;5017290;28;20718;-65
2021/09/23 10:38:55;;;;;;;13.43;6.63;;;;;;;17.89;94.20;100433.16;5028831;28;20033;-66
2021/09/23 10:41:22;;;;;;;12.68;6.03;;;;;;;17.90;94.78;100432.00;5017588;28;20021;-66
2021/09/23 10:43:49;;;;;;;13.80;6.55;;;;;;;17.92;94.19;100438.56;5027103;28;20037;-64
2021/09/23 10:46:15;;;;;;;13.30;6.40;;;;;;;17.88;94.01;100429.69;5005867;28;20525;-65
2021/09/23 10:48:48;;;;;;;12.85;5.25;;;;;;;17.85;94.41;100429.69;5023855;28;20444;-65
2021/09/23 10:51:18;;;;;;;10.52;5.50;;;;;;;17.87;93.98;100432.78;5006215;28;20153;-66
2021/09/23 10:53:52;;;;;;;12.57;5.22;;;;;;;17.89;94.34;100428.47;5023276;28;20038;-67
2021/09/23 10:56:20;;;;;;;11.65;5.03;;;;;;;17.89;93.86;100433.16;5007818;28;20036;-67
2021/09/23 10:58:50;;;;;;;10.77;5.22;;;;;;;17.92;94.34;100424.94;5007155;28;20030;-67
2021/09/23 11:01:29;;;;;;;10.05;4.97;;;;;;;17.91;93.42;100426.13;4998021;28;20030;-67
2021/09/23 11:03:58;;;;;;;12.73;4.47;;;;;;;17.91;93.71;100439.75;5024108;28;20883;-67
2021/09/23 11:06:33;;;;;;;11.13;5.05;;;;;;;17.95;92.74;100432.31;5006117;28;20087;-67
2021/09/23 11:09:18;;;;;;;8.38;4.43;;;;;;;17.86;93.47;100437.50;5007156;28;20037;-67
2021/09/23 11:11:53;;;;;;;10.23;4.70;;;;;;;17.91;93.40;100428.84;5007131;28;20044;-66
2021/09/23 11:14:20;;;;;;;9.95;4.80;;;;;;;17.92;93.03;100426.91;5006427;28;20461;-67
2021/09/23 11:16:49;;;;;;;8.82;4.30;;;;;;;17.96;93.46;100430.34;5026273;28;20048;-66